createdAt,value
2017-05-01T00:00:44.924Z,42.90
2017-05-01T00:03:13.835Z,44.00
2017-05-01T00:05:42.766Z,43.90
2017-05-01T00:08:12.410Z,44.00
2017-05-01T00:10:41.304Z,44.20
2017-05-01T00:13:10.233Z,44.10
2017-05-01T00:15:39.156Z,44.30
2017-05-01T00:18:08.797Z,44.30
2017-05-01T00:20:37.740Z,44.50
2017-05-01T00:23:06.646Z,44.80
2017-05-01T00:25:36.303Z,45.10
2017-05-01T00:28:05.251Z,45.10
2017-05-01T00:30:34.904Z,45.10
2017-05-01T00:33:03.824Z,45.10
2017-05-01T00:35:32.781Z,45.30
2017-05-01T00:38:01.696Z,45.50
2017-05-01T00:40:30.598Z,45.90
2017-05-01T00:42:59.542Z,46.00
2017-05-01T00:45:28.459Z,46.00
2017-05-01T00:47:57.380Z,46.20
2017-05-01T00:50:26.311Z,46.30
2017-05-01T00:52:55.236Z,46.30
2017-05-01T00:55:24.163Z,46.30
2017-05-01T00:57:53.097Z,46.30
2017-05-01T01:00:22.019Z,46.60
2017-05-01T01:02:50.938Z,46.70
2017-05-01T01:05:19.869Z,47.00
2017-05-01T01:07:48.788Z,47.00
2017-05-01T01:10:23.443Z,47.10
2017-05-01T01:12:52.364Z,47.40
2017-05-01T01:15:21.710Z,47.90
2017-05-01T01:17:50.636Z,47.90
2017-05-01T01:20:19.567Z,48.00
2017-05-01T01:22:48.472Z,48.10
2017-05-01T01:25:17.404Z,48.20
2017-05-01T01:27:46.310Z,48.90
2017-05-01T01:30:15.953Z,48.50
2017-05-01T01:32:44.899Z,48.80
2017-05-01T01:35:13.800Z,48.90
2017-05-01T01:37:42.710Z,49.20
2017-05-01T01:40:12.385Z,49.60
2017-05-01T01:42:41.294Z,49.70
2017-05-01T01:45:10.941Z,49.40
2017-05-01T01:47:39.887Z,49.30
2017-05-01T01:50:08.802Z,49.40
2017-05-01T01:52:38.464Z,49.70
2017-05-01T01:55:07.445Z,50.20
2017-05-01T01:57:36.372Z,50.10
2017-05-01T02:00:05.287Z,50.30
2017-05-01T02:02:34.979Z,50.40
2017-05-01T02:05:03.909Z,50.50
2017-05-01T02:07:32.827Z,50.50
2017-05-01T02:10:01.759Z,50.90
2017-05-01T02:12:30.661Z,51.30
2017-05-01T02:15:00.305Z,51.30
2017-05-01T02:17:29.251Z,51.30
2017-05-01T02:19:58.176Z,51.30
2017-05-01T02:22:27.091Z,51.30
2017-05-01T02:24:56.022Z,51.30
2017-05-01T02:27:24.923Z,51.50
2017-05-01T02:29:53.845Z,51.30
2017-05-01T02:32:22.795Z,51.40
2017-05-01T02:34:51.723Z,51.70
2017-05-01T02:37:20.647Z,51.90
2017-05-01T02:39:49.574Z,51.40
2017-05-01T02:42:18.477Z,50.70
2017-05-01T02:44:47.397Z,50.70
2017-05-01T02:47:16.344Z,51.10
2017-05-01T02:49:45.273Z,50.70
2017-05-01T02:52:14.934Z,50.90
2017-05-01T02:54:43.883Z,50.90
2017-05-01T02:57:12.784Z,50.90
2017-05-01T02:59:41.829Z,51.00
2017-05-01T03:02:10.755Z,51.30
2017-05-01T03:04:39.661Z,51.70
2017-05-01T03:07:08.572Z,51.10
2017-05-01T03:09:37.531Z,51.50
2017-05-01T03:12:07.173Z,51.70
2017-05-01T03:14:36.080Z,51.60
2017-05-01T03:17:05.005Z,51.30
2017-05-01T03:19:34.684Z,51.30
2017-05-01T03:22:03.633Z,51.50
2017-05-01T03:24:32.567Z,52.00
2017-05-01T03:27:01.476Z,52.00
2017-05-01T03:29:30.380Z,51.60
2017-05-01T03:31:59.323Z,51.60
2017-05-01T03:34:28.226Z,51.70
2017-05-01T03:36:57.153Z,52.10
2017-05-01T03:39:26.100Z,52.00
2017-05-01T03:41:55.023Z,52.00
2017-05-01T03:44:23.926Z,52.30
2017-05-01T03:46:52.852Z,52.20
2017-05-01T03:49:21.754Z,52.80
2017-05-01T03:51:50.653Z,53.40
2017-05-01T03:54:19.600Z,53.00
2017-05-01T03:56:48.501Z,52.70
2017-05-01T03:59:18.158Z,52.80
2017-05-01T04:01:47.482Z,53.00
2017-05-01T04:04:16.411Z,53.20
2017-05-01T04:06:45.343Z,52.90
2017-05-01T04:09:14.270Z,53.10
2017-05-01T04:11:43.193Z,52.90
2017-05-01T04:14:12.115Z,52.60
2017-05-01T04:16:41.064Z,53.20
2017-05-01T04:19:10.714Z,54.00
2017-05-01T04:21:39.621Z,53.40
2017-05-01T04:24:08.548Z,53.60
2017-05-01T04:26:37.453Z,53.40
2017-05-01T04:29:07.097Z,52.70
2017-05-01T04:31:36.047Z,53.00
2017-05-01T04:34:04.968Z,53.50
2017-05-01T04:36:33.887Z,53.20
2017-05-01T04:39:02.814Z,52.80
2017-05-01T04:41:31.741Z,52.40
2017-05-01T04:44:00.652Z,52.60
2017-05-01T04:46:29.635Z,52.50
2017-05-01T04:48:58.545Z,52.40
2017-05-01T04:51:27.451Z,52.50
2017-05-01T04:53:56.407Z,52.60
2017-05-01T04:56:25.308Z,53.30
2017-05-01T04:58:54.218Z,52.40
2017-05-01T05:01:23.139Z,52.20
2017-05-01T05:03:52.062Z,52.40
2017-05-01T05:06:21.735Z,52.40
2017-05-01T05:08:50.657Z,52.30
2017-05-01T05:11:20.292Z,52.30
2017-05-01T05:13:49.211Z,52.10
2017-05-01T05:16:18.131Z,52.20
2017-05-01T05:18:47.084Z,51.90
2017-05-01T05:21:16.002Z,51.50
2017-05-01T05:23:44.905Z,51.70
2017-05-01T05:26:13.840Z,51.50
2017-05-01T05:28:42.758Z,51.30
2017-05-01T05:31:12.086Z,50.50
2017-05-01T05:33:41.001Z,50.90
2017-05-01T05:36:10.649Z,50.30
2017-05-01T05:38:39.579Z,50.20
2017-05-01T05:41:08.506Z,49.70
2017-05-01T05:43:38.191Z,49.40
2017-05-01T05:46:07.118Z,48.90
2017-05-01T05:48:36.025Z,48.40
2017-05-01T05:51:04.945Z,47.60
2017-05-01T05:53:33.849Z,48.10
2017-05-01T05:56:02.795Z,48.60
2017-05-01T05:58:31.718Z,47.90
2017-05-01T06:01:00.624Z,47.20
2017-05-01T06:03:29.562Z,47.00
2017-05-01T06:05:58.491Z,46.60
2017-05-01T06:08:27.414Z,46.50
2017-05-01T06:10:57.061Z,46.60
2017-05-01T06:13:26.010Z,46.10
2017-05-01T06:15:54.925Z,45.70
2017-05-01T06:18:24.952Z,45.60
2017-05-01T06:20:53.876Z,45.60
2017-05-01T06:23:22.800Z,44.90
2017-05-01T06:25:51.738Z,45.00
2017-05-01T06:28:20.663Z,45.10
2017-05-01T06:30:49.572Z,44.30
2017-05-01T06:33:18.520Z,43.90
2017-05-01T06:35:47.447Z,44.10
2017-05-01T06:38:16.439Z,43.70
2017-05-01T06:40:45.349Z,43.60
2017-05-01T06:43:14.262Z,43.10
2017-05-01T06:45:43.932Z,42.90
2017-05-01T06:48:12.853Z,42.90
2017-05-01T06:50:42.552Z,42.80
2017-05-01T06:53:11.479Z,42.00
2017-05-01T06:55:40.397Z,41.60
2017-05-01T06:58:09.344Z,41.80
2017-05-01T07:00:39.001Z,41.70
2017-05-01T07:03:07.941Z,41.10
2017-05-01T07:05:37.615Z,40.90
2017-05-01T07:08:06.528Z,40.80
2017-05-01T07:10:35.467Z,40.40
2017-05-01T07:13:04.382Z,40.10
2017-05-01T07:15:33.339Z,39.90
2017-05-01T07:18:02.257Z,39.90
2017-05-01T07:20:31.183Z,39.40
2017-05-01T07:23:00.127Z,39.50
2017-05-01T07:25:29.045Z,39.00
2017-05-01T07:27:57.978Z,39.30
2017-05-01T07:30:26.893Z,39.10
2017-05-01T07:32:55.819Z,38.90
2017-05-01T07:35:24.750Z,38.50
2017-05-01T07:37:53.687Z,37.90
2017-05-01T07:40:22.715Z,38.00
2017-05-01T07:42:51.655Z,37.40
2017-05-01T07:45:20.571Z,36.80
2017-05-01T07:47:51.715Z,36.60
2017-05-01T07:50:21.799Z,36.50
2017-05-01T07:52:50.740Z,36.20
2017-05-01T07:55:20.406Z,36.30
2017-05-01T07:57:49.335Z,35.90
2017-05-01T08:00:18.284Z,36.30
2017-05-01T08:02:47.933Z,34.70
2017-05-01T08:05:16.893Z,34.00
2017-05-01T08:07:45.823Z,32.50
2017-05-01T08:10:14.756Z,32.50
2017-05-01T08:12:43.707Z,31.40
2017-05-01T08:15:12.616Z,29.00
2017-05-01T08:17:41.569Z,29.30
2017-05-01T08:20:10.498Z,28.30
2017-05-01T08:22:39.431Z,28.50
2017-05-01T08:25:09.112Z,28.00
2017-05-01T08:27:38.025Z,27.60
2017-05-01T08:30:07.715Z,28.40
2017-05-01T08:32:36.647Z,27.10
2017-05-01T08:35:05.561Z,26.40
2017-05-01T08:37:34.493Z,26.30
2017-05-01T08:40:03.427Z,26.40
2017-05-01T08:42:32.383Z,27.30
2017-05-01T08:45:01.311Z,25.80
2017-05-01T08:47:30.256Z,25.70
2017-05-01T08:49:59.203Z,25.60
2017-05-01T08:52:28.121Z,24.80
2017-05-01T08:54:57.093Z,25.90
2017-05-01T08:57:26.022Z,26.00
2017-05-01T08:59:54.961Z,26.20
2017-05-01T09:02:23.900Z,25.30
2017-05-01T09:04:52.821Z,24.80
2017-05-01T09:07:22.523Z,24.80
2017-05-01T09:09:51.445Z,25.70
2017-05-01T09:12:21.097Z,26.80
2017-05-01T09:14:50.041Z,26.40
2017-05-01T09:17:19.715Z,25.50
2017-05-01T09:19:48.676Z,24.90
2017-05-01T09:22:17.633Z,25.00
2017-05-01T09:24:47.308Z,25.00
2017-05-01T09:27:16.245Z,24.70
2017-05-01T09:29:45.182Z,24.90
2017-05-01T09:32:14.132Z,25.10
2017-05-01T09:34:43.073Z,24.60
2017-05-01T09:37:12.011Z,24.30
2017-05-01T09:39:40.967Z,24.30
2017-05-01T09:42:09.901Z,23.90
2017-05-01T09:44:38.844Z,24.60
2017-05-01T09:47:07.776Z,24.90
2017-05-01T09:49:37.429Z,25.00
2017-05-01T09:52:06.392Z,25.00
2017-05-01T09:54:35.322Z,24.80
2017-05-01T09:57:04.256Z,25.30
2017-05-01T09:59:33.925Z,25.80
2017-05-01T10:02:02.841Z,26.30
2017-05-01T10:04:31.768Z,25.50
2017-05-01T10:07:00.684Z,25.20
2017-05-01T10:09:29.617Z,25.70
2017-05-01T10:11:58.544Z,24.80
2017-05-01T10:14:27.461Z,24.50
2017-05-01T10:16:56.423Z,24.00
2017-05-01T10:19:25.344Z,23.90
2017-05-01T10:21:54.285Z,23.30
2017-05-01T10:24:23.205Z,23.70
2017-05-01T10:26:52.145Z,24.40
2017-05-01T10:29:21.202Z,23.60
2017-05-01T10:31:50.125Z,22.50
2017-05-01T10:34:19.441Z,23.10
2017-05-01T10:36:48.365Z,22.50
2017-05-01T10:39:18.021Z,22.20
2017-05-01T10:41:46.980Z,22.30
2017-05-01T10:44:15.922Z,21.80
2017-05-01T10:46:44.868Z,22.30
2017-05-01T10:49:13.809Z,22.20
2017-05-01T10:51:42.728Z,23.00
2017-05-01T10:54:12.405Z,22.40
2017-05-01T10:56:41.317Z,22.80
2017-05-01T10:59:10.277Z,23.70
2017-05-01T11:01:39.194Z,24.00
2017-05-01T11:04:08.109Z,24.00
2017-05-01T11:06:37.794Z,24.10
2017-05-01T11:09:06.722Z,24.30
2017-05-01T11:11:36.423Z,22.40
2017-05-01T11:14:06.096Z,20.70
2017-05-01T11:16:35.031Z,22.20
2017-05-01T11:19:04.701Z,23.30
2017-05-01T11:21:33.632Z,23.00
2017-05-01T11:24:03.327Z,23.00
2017-05-01T11:26:32.249Z,22.60
2017-05-01T11:29:01.184Z,22.70
2017-05-01T11:31:30.110Z,24.00
2017-05-01T11:33:59.026Z,24.10
2017-05-01T11:36:27.953Z,25.60
2017-05-01T11:38:56.912Z,26.60
2017-05-01T11:41:26.600Z,27.40
2017-05-01T11:43:56.268Z,27.70
2017-05-01T11:46:25.199Z,27.90
2017-05-01T11:48:54.148Z,28.00
2017-05-01T11:51:23.080Z,27.60
2017-05-01T11:53:52.037Z,27.00
2017-05-01T11:56:20.950Z,27.40
2017-05-01T11:58:49.861Z,27.40
2017-05-01T12:01:19.541Z,25.80
2017-05-01T12:03:48.449Z,25.80
2017-05-01T12:06:17.419Z,26.20
2017-05-01T12:08:46.343Z,27.00
2017-05-01T12:11:16.029Z,26.40
2017-05-01T12:13:44.955Z,26.70
2017-05-01T12:16:14.628Z,27.30
2017-05-01T12:18:43.587Z,28.40
2017-05-01T12:21:12.516Z,28.20
2017-05-01T12:23:41.448Z,28.30
2017-05-01T12:26:11.134Z,28.80
2017-05-01T12:28:40.059Z,28.80
2017-05-01T12:31:09.755Z,29.10
2017-05-01T12:33:39.428Z,29.40
2017-05-01T12:36:08.338Z,30.00
2017-05-01T12:38:37.272Z,29.80
2017-05-01T12:41:06.204Z,29.70
2017-05-01T12:43:35.167Z,30.80
2017-05-01T12:46:04.097Z,30.90
2017-05-01T12:48:33.028Z,31.00
2017-05-01T12:51:02.715Z,29.50
2017-05-01T12:53:31.645Z,27.70
2017-05-01T12:56:00.614Z,28.10
2017-05-01T12:58:30.273Z,28.50
2017-05-01T13:00:59.184Z,28.60
2017-05-01T13:03:28.136Z,28.70
2017-05-01T13:05:57.067Z,27.70
2017-05-01T13:08:26.010Z,27.30
2017-05-01T13:10:54.924Z,28.00
2017-05-01T13:13:23.863Z,28.10
2017-05-01T13:15:52.815Z,27.90
2017-05-01T13:18:21.733Z,28.70
2017-05-01T13:20:50.673Z,30.20
2017-05-01T13:23:19.605Z,31.20
2017-05-01T13:25:48.520Z,29.80
2017-05-01T13:28:17.464Z,28.90
2017-05-01T13:30:46.373Z,28.50
2017-05-01T13:33:15.305Z,28.30
2017-05-01T13:35:44.221Z,28.60
2017-05-01T13:38:13.892Z,28.80
2017-05-01T13:40:42.835Z,29.10
2017-05-01T13:43:11.750Z,28.70
2017-05-01T13:45:40.680Z,28.80
2017-05-01T13:48:09.612Z,28.70
2017-05-01T13:50:38.541Z,28.90
2017-05-01T13:53:07.472Z,29.60
2017-05-01T13:55:37.126Z,30.60
2017-05-01T13:58:06.085Z,30.80
2017-05-01T14:00:35.737Z,31.30
2017-05-01T14:03:04.666Z,31.60
2017-05-01T14:05:33.602Z,32.10
2017-05-01T14:08:02.531Z,32.10
2017-05-01T14:10:31.487Z,32.70
2017-05-01T14:13:00.419Z,32.70
2017-05-01T14:15:29.355Z,32.80
2017-05-01T14:17:58.290Z,33.10
2017-05-01T14:20:27.200Z,32.90
2017-05-01T14:22:56.147Z,33.30
2017-05-01T14:25:25.091Z,33.40
2017-05-01T14:27:54.007Z,33.60
2017-05-01T14:30:23.703Z,33.90
2017-05-01T14:32:53.362Z,34.30
2017-05-01T14:35:22.277Z,33.70
2017-05-01T14:37:51.224Z,33.80
2017-05-01T14:40:20.163Z,33.90
2017-05-01T14:42:49.110Z,33.90
2017-05-01T14:45:18.050Z,33.90
2017-05-01T14:47:46.984Z,34.10
2017-05-01T14:50:16.664Z,34.30
2017-05-01T14:52:45.640Z,34.40
2017-05-01T14:55:14.572Z,34.40
2017-05-01T14:57:44.226Z,34.50
2017-05-01T15:00:13.159Z,34.50
2017-05-01T15:02:42.541Z,34.90
2017-05-01T15:05:11.461Z,35.20
2017-05-01T15:07:40.402Z,35.00
2017-05-01T15:10:09.342Z,34.90
2017-05-01T15:12:38.271Z,34.90
2017-05-01T15:15:07.217Z,35.20
2017-05-01T15:17:36.131Z,35.40
2017-05-01T15:20:05.835Z,35.10
2017-05-01T15:22:35.484Z,35.30
2017-05-01T15:25:04.416Z,34.80
2017-05-01T15:27:33.349Z,34.50
2017-05-01T15:30:02.299Z,34.70
2017-05-01T15:32:31.268Z,34.30
2017-05-01T15:35:00.177Z,34.40
2017-05-01T15:37:29.106Z,34.70
2017-05-01T15:39:58.771Z,35.10
2017-05-01T15:42:27.717Z,34.80
2017-05-01T15:44:56.678Z,35.10
2017-05-01T15:47:25.601Z,34.80
2017-05-01T15:49:55.266Z,34.90
2017-05-01T15:52:24.197Z,34.90
2017-05-01T15:54:53.868Z,34.70
2017-05-01T15:57:22.841Z,34.90
2017-05-01T15:59:51.765Z,35.00
2017-05-01T16:02:20.703Z,34.80
2017-05-01T16:04:49.637Z,35.00
2017-05-01T16:07:18.567Z,35.10
2017-05-01T16:09:48.271Z,35.30
2017-05-01T16:12:17.921Z,35.50
2017-05-01T16:14:46.850Z,35.40
2017-05-01T16:17:15.780Z,35.50
2017-05-01T16:19:45.450Z,35.50
2017-05-01T16:22:14.409Z,35.30
2017-05-01T16:24:43.328Z,35.20
2017-05-01T16:27:12.247Z,35.30
2017-05-01T16:29:41.939Z,35.80
2017-05-01T16:32:10.853Z,35.50
2017-05-01T16:34:40.562Z,35.60
2017-05-01T16:37:10.216Z,35.70
2017-05-01T16:39:39.129Z,36.50
2017-05-01T16:42:08.060Z,35.60
2017-05-01T16:44:37.736Z,36.00
2017-05-01T16:47:06.694Z,36.00
2017-05-01T16:49:35.620Z,36.00
2017-05-01T16:52:04.533Z,36.10
2017-05-01T16:54:33.469Z,36.30
2017-05-01T16:57:02.399Z,36.20
2017-05-01T16:59:31.341Z,36.20
2017-05-01T17:02:00.272Z,36.20
2017-05-01T17:04:29.188Z,35.90
2017-05-01T17:06:58.994Z,35.90
2017-05-01T17:09:27.920Z,35.80
2017-05-01T17:11:57.592Z,35.90
2017-05-01T17:14:26.513Z,36.10
2017-05-01T17:16:56.170Z,36.30
2017-05-01T17:19:25.112Z,36.40
2017-05-01T17:21:54.765Z,36.80
2017-05-01T17:24:23.715Z,36.90
2017-05-01T17:26:53.390Z,36.70
2017-05-01T17:29:22.320Z,37.10
2017-05-01T17:31:51.994Z,36.90
2017-05-01T17:34:20.913Z,37.00
2017-05-01T17:36:50.607Z,37.50
2017-05-01T17:39:19.532Z,37.00
2017-05-01T17:41:49.208Z,37.10
2017-05-01T17:44:18.146Z,37.30
2017-05-01T17:46:47.056Z,37.50
2017-05-01T17:49:15.993Z,37.40
2017-05-01T17:51:44.913Z,37.10
2017-05-01T17:54:14.578Z,37.40
2017-05-01T17:56:43.531Z,37.50
2017-05-01T17:59:12.447Z,37.30
2017-05-01T18:01:41.381Z,37.40
2017-05-01T18:04:11.066Z,37.70
2017-05-01T18:06:39.985Z,37.30
2017-05-01T18:09:08.928Z,37.20
2017-05-01T18:11:37.873Z,37.70
2017-05-01T18:14:07.550Z,37.30
2017-05-01T18:16:36.470Z,37.30
2017-05-01T18:19:05.384Z,37.30
2017-05-01T18:21:34.365Z,37.20
2017-05-01T18:24:04.067Z,37.50
2017-05-01T18:26:33.029Z,37.30
2017-05-01T18:29:01.948Z,37.40
2017-05-01T18:31:30.887Z,39.30
2017-05-01T18:33:59.818Z,40.80
2017-05-01T18:36:28.727Z,41.80
2017-05-01T18:38:58.409Z,42.80
2017-05-01T18:41:27.331Z,42.90
2017-05-01T18:43:56.257Z,43.20
2017-05-01T18:46:25.216Z,43.50
2017-05-01T18:48:54.889Z,43.30
2017-05-01T18:51:23.825Z,43.90
2017-05-01T18:53:53.495Z,43.40
2017-05-01T18:56:22.405Z,43.90
2017-05-01T18:58:51.345Z,43.50
2017-05-01T19:01:20.276Z,43.90
2017-05-01T19:03:49.227Z,43.80
2017-05-01T19:06:18.132Z,44.00
2017-05-01T19:08:47.058Z,44.30
2017-05-01T19:11:16.003Z,44.40
2017-05-01T19:13:44.920Z,45.50
2017-05-01T19:16:13.882Z,44.80
2017-05-01T19:18:42.793Z,45.00
2017-05-01T19:21:11.703Z,45.00
2017-05-01T19:23:40.655Z,44.80
2017-05-01T19:26:09.594Z,44.70
2017-05-01T19:28:38.551Z,45.00
2017-05-01T19:31:07.475Z,44.70
2017-05-01T19:33:37.142Z,44.90
2017-05-01T19:36:06.103Z,45.10
2017-05-01T19:38:35.022Z,45.00
2017-05-01T19:41:03.973Z,45.10
2017-05-01T19:43:33.014Z,45.10
2017-05-01T19:46:01.946Z,44.90
2017-05-01T19:48:31.632Z,44.80
2017-05-01T19:51:00.553Z,44.80
2017-05-01T19:53:29.498Z,45.00
2017-05-01T19:55:58.414Z,45.10
2017-05-01T19:58:27.341Z,44.80
2017-05-01T20:00:56.285Z,44.90
2017-05-01T20:03:25.218Z,44.70
2017-05-01T20:05:54.149Z,44.60
2017-05-01T20:08:23.052Z,44.80
2017-05-01T20:10:51.980Z,44.60
2017-05-01T20:13:21.667Z,44.80
2017-05-01T20:15:50.591Z,44.70
2017-05-01T20:18:20.286Z,44.70
2017-05-01T20:20:49.967Z,44.50
2017-05-01T20:23:18.886Z,44.50
2017-05-01T20:25:48.554Z,44.70
2017-05-01T20:28:17.469Z,44.70
2017-05-01T20:30:46.419Z,44.60
2017-05-01T20:33:15.343Z,44.70
2017-05-01T20:35:44.267Z,44.70
2017-05-01T20:38:13.951Z,44.70
2017-05-01T20:40:42.860Z,44.60
2017-05-01T20:43:11.790Z,44.60
2017-05-01T20:45:40.717Z,44.90
2017-05-01T20:48:09.625Z,44.60
2017-05-01T20:50:38.557Z,44.80
2017-05-01T20:53:07.482Z,44.50
2017-05-01T20:55:36.413Z,44.60
2017-05-01T20:58:05.339Z,44.50
2017-05-01T21:00:34.249Z,44.70
2017-05-01T21:03:03.177Z,44.80
2017-05-01T21:05:32.097Z,45.10
2017-05-01T21:08:01.769Z,45.20
2017-05-01T21:10:30.694Z,45.30
2017-05-01T21:13:00.355Z,45.30
2017-05-01T21:15:29.292Z,45.70
2017-05-01T21:17:58.933Z,45.70
2017-05-01T21:20:27.879Z,45.70
2017-05-01T21:22:56.783Z,45.80
2017-05-01T21:25:25.701Z,45.90
2017-05-01T21:27:54.700Z,45.70
2017-05-01T21:30:23.624Z,45.40
2017-05-01T21:32:52.557Z,45.40
2017-05-01T21:35:22.227Z,45.80
2017-05-01T21:37:51.140Z,45.60
2017-05-01T21:40:20.083Z,45.70
2017-05-01T21:42:49.013Z,45.50
2017-05-01T21:45:17.941Z,45.30
2017-05-01T21:47:47.589Z,45.50
2017-05-01T21:50:16.516Z,45.50
2017-05-01T21:52:45.455Z,46.00
2017-05-01T21:55:14.380Z,45.80
2017-05-01T21:57:43.314Z,45.90
2017-05-01T22:00:12.978Z,46.10
2017-05-01T22:02:41.908Z,47.10
2017-05-01T22:05:10.828Z,46.50
2017-05-01T22:07:39.796Z,47.00
2017-05-01T22:10:08.743Z,46.10
2017-05-01T22:12:37.671Z,46.50
2017-05-01T22:15:06.592Z,46.70
2017-05-01T22:17:35.541Z,46.80
2017-05-01T22:20:04.457Z,46.80
2017-05-01T22:22:33.389Z,47.10
2017-05-01T22:25:02.300Z,47.40
2017-05-01T22:27:31.227Z,47.40
2017-05-01T22:30:00.172Z,47.20
2017-05-01T22:32:29.095Z,47.50
2017-05-01T22:34:57.997Z,47.40
2017-05-01T22:37:26.943Z,47.80
2017-05-01T22:39:55.848Z,47.90
2017-05-01T22:42:24.778Z,48.10
2017-05-01T22:44:53.707Z,48.30
2017-05-01T22:47:22.613Z,48.40
2017-05-01T22:49:51.520Z,48.70
2017-05-01T22:52:20.448Z,48.80
2017-05-01T22:54:49.363Z,48.90
2017-05-01T22:57:19.012Z,48.90
2017-05-01T22:59:47.960Z,49.10
2017-05-01T23:02:17.622Z,49.00
2017-05-01T23:04:46.529Z,49.40
2017-05-01T23:07:15.488Z,49.30
2017-05-01T23:09:44.392Z,49.60
2017-05-01T23:12:13.320Z,50.20
2017-05-01T23:14:42.260Z,50.20
2017-05-01T23:17:11.185Z,50.30
2017-05-01T23:19:40.112Z,50.20
2017-05-01T23:22:09.792Z,50.40
2017-05-01T23:24:38.699Z,50.90
2017-05-01T23:27:07.623Z,51.20
2017-05-01T23:29:36.558Z,51.30
2017-05-01T23:32:05.480Z,51.00
2017-05-01T23:34:34.411Z,51.50
2017-05-01T23:37:03.341Z,51.30
2017-05-01T23:39:32.263Z,51.40
2017-05-01T23:42:01.913Z,51.80
2017-05-01T23:44:30.864Z,51.80
2017-05-01T23:47:00.517Z,51.90
2017-05-01T23:49:29.429Z,51.90
2017-05-01T23:51:58.392Z,51.90
2017-05-01T23:54:27.321Z,52.50
2017-05-01T23:56:56.251Z,52.00
2017-05-01T23:59:25.940Z,52.20
